sensor_id;sensor_type;location;lat;lon;timestamp;temperature;humidity
43528;DHT22;52359;42.658;23.320;2023-03-14T06:43:23;5.10;99.90
43528;DHT22;52359;42.658;23.320;2023-03-14T06:45:49;5.40;99.90
43528;DHT22;52359;42.658;23.320;2023-03-14T06:48:15;5.70;99.90
43528;DHT22;52359;42.658;23.320;2023-03-14T06:50:41;6.10;99.90
43528;DHT22;52359;42.658;23.320;2023-03-14T06:53:07;6.50;99.90
43528;DHT22;52359;42.658;23.320;2023-03-14T06:55:33;6.70;99.90
43528;DHT22;52359;42.658;23.320;2023-03-14T06:57:58;6.80;99.90
43528;DHT22;52359;42.658;23.320;2023-03-14T07:00:24;7.00;99.60
43528;DHT22;52359;42.658;23.320;2023-03-14T07:02:50;7.40;99.40
43528;DHT22;52359;42.658;23.320;2023-03-14T07:05:16;7.60;98.70
43528;DHT22;52359;42.658;23.320;2023-03-14T07:07:41;7.70;97.50
43528;DHT22;52359;42.658;23.320;2023-03-14T07:10:07;8.10;96.70
43528;DHT22;52359;42.658;23.320;2023-03-14T07:12:34;8.40;96.70
43528;DHT22;52359;42.658;23.320;2023-03-14T07:14:59;8.60;95.40
43528;DHT22;52359;42.658;23.320;2023-03-14T07:17:25;8.90;94.30
43528;DHT22;52359;42.658;23.320;2023-03-14T07:19:51;9.20;94.10
43528;DHT22;52359;42.658;23.320;2023-03-14T07:22:16;9.20;93.60
43528;DHT22;52359;42.658;23.320;2023-03-14T07:24:42;9.30;92.80
43528;DHT22;52359;42.658;23.320;2023-03-14T07:27:07;9.60;92.90
43528;DHT22;52359;42.658;23.320;2023-03-14T07:29:33;9.80;92.30
43528;DHT22;52359;42.658;23.320;2023-03-14T07:31:59;10.30;91.10
43528;DHT22;52359;42.658;23.320;2023-03-14T07:34:24;10.60;88.80
43528;DHT22;52359;42.658;23.320;2023-03-14T07:36:50;10.60;84.80
43528;DHT22;52359;42.658;23.320;2023-03-14T07:39:15;11.00;85.70
43528;DHT22;52359;42.658;23.320;2023-03-14T07:41:41;11.40;83.00
43528;DHT22;52359;42.658;23.320;2023-03-14T07:44:07;11.90;82.40
43528;DHT22;52359;42.658;23.320;2023-03-14T07:46:32;12.50;79.70
43528;DHT22;52359;42.658;23.320;2023-03-14T07:48:58;12.50;78.30
43528;DHT22;52359;42.658;23.320;2023-03-14T07:51:24;13.00;77.20
43528;DHT22;52359;42.658;23.320;2023-03-14T07:53:49;15.20;71.00
43528;DHT22;52359;42.658;23.320;2023-03-14T07:56:15;17.80;65.10
43528;DHT22;52359;42.658;23.320;2023-03-14T07:58:40;18.80;61.50
43528;DHT22;52359;42.658;23.320;2023-03-14T08:01:06;19.90;58.70
43528;DHT22;52359;42.658;23.320;2023-03-14T08:03:32;19.60;56.80
43528;DHT22;52359;42.658;23.320;2023-03-14T08:05:58;20.60;56.10
43528;DHT22;52359;42.658;23.320;2023-03-14T08:08:23;21.00;56.40
43528;DHT22;52359;42.658;23.320;2023-03-14T08:15:41;20.20;52.40
43528;DHT22;52359;42.658;23.320;2023-03-14T08:20:33;19.30;65.30
43528;DHT22;52359;42.658;23.320;2023-03-14T08:23:00;21.40;61.10
43528;DHT22;52359;42.658;23.320;2023-03-14T08:32:46;22.50;51.00
43528;DHT22;52359;42.658;23.320;2023-03-14T08:35:12;22.70;51.40
43528;DHT22;52359;42.658;23.320;2023-03-14T08:37:38;23.20;52.30
43528;DHT22;52359;42.658;23.320;2023-03-14T08:40:05;23.70;53.20
43528;DHT22;52359;42.658;23.320;2023-03-14T08:45:01;21.60;51.20
43528;DHT22;52359;42.658;23.320;2023-03-14T08:47:27;21.60;52.50
43528;DHT22;52359;42.658;23.320;2023-03-14T08:49:53;23.70;52.50
43528;DHT22;52359;42.658;23.320;2023-03-14T08:52:18;26.00;51.80
43528;DHT22;52359;42.658;23.320;2023-03-14T08:54:44;26.70;51.10
43528;DHT22;52359;42.658;23.320;2023-03-14T08:57:10;26.60;50.80
43528;DHT22;52359;42.658;23.320;2023-03-14T09:58:21;27.50;42.30
43528;DHT22;52359;42.658;23.320;2023-03-14T10:00:49;28.30;43.60
43528;DHT22;52359;42.658;23.320;2023-03-14T10:03:45;28.60;43.70
43528;DHT22;52359;42.658;23.320;2023-03-14T10:06:12;28.90;44.60
43528;DHT22;52359;42.658;23.320;2023-03-14T10:08:43;28.40;45.40
43528;DHT22;52359;42.658;23.320;2023-03-14T10:11:15;27.20;46.60
43528;DHT22;52359;42.658;23.320;2023-03-14T10:13:49;27.10;47.30
43528;DHT22;52359;42.658;23.320;2023-03-14T10:16:15;26.10;47.00
43528;DHT22;52359;42.658;23.320;2023-03-14T10:18:45;26.50;48.50
